createdAt,value
2022-11-23T00:00:43.210Z,94190.69
2022-11-23T00:03:15.230Z,94196.06
2022-11-23T00:05:42.461Z,94186.88
2022-11-23T00:08:09.533Z,94194.94
2022-11-23T00:10:36.687Z,94192.25
2022-11-23T00:13:03.806Z,94192.75
2022-11-23T00:15:30.977Z,94199.69
2022-11-23T00:17:58.613Z,94200.84
2022-11-23T00:20:25.961Z,94192.44
2022-11-23T00:22:53.010Z,94190.50
2022-11-23T00:25:20.079Z,94191.28
2022-11-23T00:27:47.253Z,94187.50
2022-11-23T00:30:14.901Z,94192.09
2022-11-23T00:32:42.147Z,94188.59
2022-11-23T00:35:09.273Z,94197.50
2022-11-23T00:37:36.422Z,94189.41
2022-11-23T00:40:03.798Z,94193.53
2022-11-23T00:42:36.560Z,94190.84
2022-11-23T00:45:05.320Z,94202.41
2022-11-23T00:47:32.418Z,94202.41
2022-11-23T00:49:59.675Z,94200.03
2022-11-23T00:52:26.845Z,94199.56
2022-11-23T00:54:53.963Z,94197.66
2022-11-23T00:57:21.109Z,94205.72
2022-11-23T00:59:48.534Z,94200.66
2022-11-23T01:02:16.390Z,94198.28
2022-11-23T01:04:43.557Z,94203.66
2022-11-23T01:07:10.692Z,94209.06
2022-11-23T01:09:38.017Z,94205.91
2022-11-23T01:12:06.704Z,94209.06
2022-11-23T01:14:33.825Z,94207.50
2022-11-23T01:17:04.297Z,94210.97
2022-11-23T01:19:34.982Z,94216.03
2022-11-23T01:22:02.185Z,94217.63
2022-11-23T01:24:29.354Z,94217.63
2022-11-23T01:26:56.546Z,94213.81
2022-11-23T01:29:24.332Z,94211.63
2022-11-23T01:31:51.518Z,94212.72
2022-11-23T01:34:18.829Z,94210.81
2022-11-23T01:36:46.108Z,94202.41
2022-11-23T01:39:13.437Z,94204.00
2022-11-23T01:41:43.511Z,94205.59
2022-11-23T01:44:28.617Z,94203.69
2022-11-23T01:46:59.256Z,94207.16
2022-11-23T01:49:30.125Z,94206.84
2022-11-23T01:52:03.280Z,94208.75
2022-11-23T01:54:41.246Z,94211.44
2022-11-23T01:57:16.139Z,94214.13
2022-11-23T01:59:45.703Z,94221.13
2022-11-23T02:02:13.770Z,94222.69
2022-11-23T02:04:45.875Z,94223.50
2022-11-23T02:07:17.058Z,94221.91
2022-11-23T02:09:45.845Z,94225.84
2022-11-23T02:12:14.355Z,94214.28
2022-11-23T02:14:44.768Z,94220.47
2022-11-23T02:17:12.109Z,94226.03
2022-11-23T02:19:58.933Z,94226.66
2022-11-23T02:22:49.425Z,94223.66
2022-11-23T02:25:44.825Z,94218.72
2022-11-23T02:28:16.247Z,94218.06
2022-11-23T02:30:47.100Z,94217.75
2022-11-23T02:33:14.264Z,94219.81
2022-11-23T02:35:56.915Z,94220.91
2022-11-23T02:38:26.957Z,94219.50
2022-11-23T02:40:57.002Z,94211.88
2022-11-23T02:43:24.874Z,94222.66
2022-11-23T02:46:03.546Z,94218.84
2022-11-23T02:48:30.797Z,94210.44
2022-11-23T02:50:57.912Z,94219.31
2022-11-23T02:53:25.258Z,94221.25
2022-11-23T02:55:54.569Z,94215.53
2022-11-23T02:58:21.637Z,94221.25
2022-11-23T03:00:48.999Z,94215.84
2022-11-23T03:03:20.021Z,94218.84
2022-11-23T03:05:47.076Z,94219.19
2022-11-23T03:08:14.380Z,94217.13
2022-11-23T03:10:41.490Z,94219.34
2022-11-23T03:13:09.154Z,94219.69
2022-11-23T03:15:38.566Z,94208.72
2022-11-23T03:18:06.548Z,94225.84
2022-11-23T03:20:34.217Z,94222.69
2022-11-23T03:23:01.395Z,94223.31
2022-11-23T03:25:28.674Z,94224.47
2022-11-23T03:27:57.203Z,94230.63
2022-11-23T03:30:24.350Z,94233.31
2022-11-23T03:32:51.794Z,94229.84
2022-11-23T03:35:20.281Z,94228.72
2022-11-23T03:38:07.829Z,94229.84
2022-11-23T03:40:34.952Z,94228.72
2022-11-23T03:43:12.254Z,94230.31
2022-11-23T03:45:39.862Z,94233.00
2022-11-23T03:48:07.364Z,94229.53
2022-11-23T03:50:34.620Z,94225.25
2022-11-23T03:53:01.672Z,94216.38
2022-11-23T03:55:29.552Z,94225.56
2022-11-23T03:57:56.734Z,94221.25
2022-11-23T04:00:23.856Z,94218.56
2022-11-23T04:02:51.065Z,94220.81
2022-11-23T04:05:36.829Z,94216.81
2022-11-23T04:08:27.892Z,94222.06
2022-11-23T04:10:57.541Z,94221.28
2022-11-23T04:13:34.473Z,94216.53
2022-11-23T04:16:01.627Z,94222.25
2022-11-23T04:18:28.724Z,94212.56
2022-11-23T04:20:55.957Z,94214.00
2022-11-23T04:23:23.001Z,94218.59
2022-11-23T04:25:50.887Z,94208.94
2022-11-23T04:28:19.426Z,94210.81
2022-11-23T04:30:48.861Z,94209.25
2022-11-23T04:33:16.348Z,94212.25
2022-11-23T04:35:47.126Z,94220.34
2022-11-23T04:38:15.220Z,94211.78
2022-11-23T04:40:43.305Z,94210.22
2022-11-23T04:43:11.133Z,94207.19
2022-11-23T04:45:40.578Z,94205.91
2022-11-23T04:48:13.488Z,94204.31
2022-11-23T04:50:46.471Z,94205.91
2022-11-23T04:53:17.474Z,94208.94
2022-11-23T04:55:47.242Z,94202.75
2022-11-23T04:58:15.902Z,94212.75
2022-11-23T05:00:43.038Z,94210.38
2022-11-23T05:03:12.132Z,94212.75
2022-11-23T05:05:41.449Z,94211.16
2022-11-23T05:08:09.511Z,94202.28
2022-11-23T05:10:52.057Z,94211.94
2022-11-23T05:13:19.699Z,94218.13
2022-11-23T05:15:48.465Z,94209.25
2022-11-23T05:18:20.386Z,94206.56
2022-11-23T05:20:49.633Z,94203.84
2022-11-23T05:23:17.156Z,94209.56
2022-11-23T05:25:45.865Z,94204.16
2022-11-23T05:28:38.895Z,94198.00
2022-11-23T05:31:05.846Z,94200.22
2022-11-23T05:33:33.255Z,94204.03
2022-11-23T05:36:01.497Z,94196.72
2022-11-23T05:38:36.564Z,94200.84
2022-11-23T05:41:09.030Z,94203.88
2022-11-23T05:43:39.334Z,94201.50
2022-11-23T05:46:08.563Z,94196.41
2022-11-23T05:48:37.173Z,94196.75
2022-11-23T05:51:09.340Z,94199.75
2022-11-23T05:53:40.964Z,94198.16
2022-11-23T05:56:15.443Z,94205.75
2022-11-23T05:58:56.842Z,94201.47
2022-11-23T06:01:24.116Z,94204.19
2022-11-23T06:03:53.285Z,94201.63
2022-11-23T06:06:20.468Z,94211.63
2022-11-23T06:08:49.227Z,94207.03
2022-11-23T06:11:17.698Z,94205.44
2022-11-23T06:13:47.703Z,94203.88
2022-11-23T06:16:15.942Z,94205.44
2022-11-23T06:18:55.225Z,94210.03
2022-11-23T06:21:22.290Z,94211.63
2022-11-23T06:23:49.595Z,94204.66
2022-11-23T06:26:17.557Z,94201.97
2022-11-23T06:28:44.727Z,94204.19
2022-11-23T06:31:11.804Z,94205.28
2022-11-23T06:33:38.926Z,94205.28
2022-11-23T06:36:06.355Z,94200.69
2022-11-23T06:38:41.661Z,94205.28
2022-11-23T06:41:15.692Z,94205.28
2022-11-23T06:43:42.850Z,94208.75
2022-11-23T06:46:11.560Z,94205.28
2022-11-23T06:48:45.695Z,94219.53
2022-11-23T06:51:15.015Z,94221.13
2022-11-23T06:53:43.439Z,94221.13
2022-11-23T06:56:13.109Z,94220.03
2022-11-23T06:58:40.944Z,94218.13
2022-11-23T07:01:12.163Z,94223.97
2022-11-23T07:03:45.699Z,94225.56
2022-11-23T07:06:21.701Z,94226.03
2022-11-23T07:08:56.964Z,94231.09
2022-11-23T07:11:38.704Z,94233.97
2022-11-23T07:14:06.046Z,94239.84
2022-11-23T07:16:35.324Z,94234.59
2022-11-23T07:19:02.678Z,94245.06
2022-11-23T07:21:29.808Z,94239.38
2022-11-23T07:23:56.886Z,94242.22
2022-11-23T07:26:24.169Z,94241.91
2022-11-23T07:28:51.239Z,94246.66
2022-11-23T07:31:18.352Z,94247.44
2022-11-23T07:33:46.681Z,94251.41
2022-11-23T07:36:14.577Z,94255.38
2022-11-23T07:38:43.602Z,94248.53
2022-11-23T07:41:14.070Z,94251.75
2022-11-23T07:44:07.378Z,94257.28
2022-11-23T07:46:34.541Z,94261.72
2022-11-23T07:49:01.663Z,94262.97
2022-11-23T07:51:29.749Z,94272.81
2022-11-23T07:53:57.130Z,94261.38
2022-11-23T07:56:24.430Z,94265.03
2022-11-23T07:58:51.550Z,94261.41
2022-11-23T08:01:19.947Z,94273.09
2022-11-23T08:03:48.408Z,94268.69
2022-11-23T08:06:16.721Z,94265.81
2022-11-23T08:08:43.742Z,94265.19
2022-11-23T08:11:11.369Z,94271.03
2022-11-23T08:13:38.439Z,94257.41
2022-11-23T08:16:05.847Z,94261.84
2022-11-23T08:18:33.044Z,94257.38
2022-11-23T08:21:00.722Z,94260.69
2022-11-23T08:23:28.170Z,94264.31
2022-11-23T08:25:55.390Z,94270.34
2022-11-23T08:28:22.679Z,94262.06
2022-11-23T08:30:50.018Z,94268.09
2022-11-23T08:33:17.495Z,94269.47
2022-11-23T08:35:44.680Z,94276.28
2022-11-23T08:38:12.182Z,94275.00
2022-11-23T08:40:39.861Z,94275.31
2022-11-23T08:43:07.003Z,94274.47
2022-11-23T08:45:34.104Z,94270.16
2022-11-23T08:48:02.551Z,94257.44
2022-11-23T08:50:30.111Z,94268.19
2022-11-23T08:52:58.561Z,94273.56
2022-11-23T08:55:27.476Z,94269.19
2022-11-23T08:57:58.556Z,94269.47
2022-11-23T09:00:26.222Z,94265.59
2022-11-23T09:02:53.596Z,94265.56
2022-11-23T09:05:20.722Z,94259.63
2022-11-23T09:07:48.698Z,94274.97
2022-11-23T09:10:18.756Z,94262.38
2022-11-23T09:12:47.537Z,94261.03
2022-11-23T09:15:15.086Z,94264.34
2022-11-23T09:17:42.354Z,94259.88
2022-11-23T09:20:10.240Z,94261.59
2022-11-23T09:22:37.788Z,94269.50
2022-11-23T09:25:05.612Z,94268.16
2022-11-23T09:27:33.196Z,94271.44
2022-11-23T09:30:00.436Z,94265.81
2022-11-23T09:32:27.537Z,94262.94
2022-11-23T09:34:54.662Z,94263.50
2022-11-23T09:37:21.749Z,94264.75
2022-11-23T09:39:48.825Z,94259.13
2022-11-23T09:42:30.553Z,94259.25
2022-11-23T09:45:19.132Z,94253.50
2022-11-23T09:47:54.401Z,94258.72
2022-11-23T09:50:50.282Z,94256.91
2022-11-23T09:53:25.030Z,94252.41
2022-11-23T09:55:55.960Z,94250.59
2022-11-23T09:58:30.918Z,94249.59
2022-11-23T10:01:04.839Z,94255.13
2022-11-23T10:03:38.097Z,94254.78
2022-11-23T10:06:10.921Z,94250.63
2022-11-23T10:09:02.011Z,94245.88
2022-11-23T10:11:50.909Z,94243.94
2022-11-23T10:14:53.278Z,94243.16
2022-11-23T10:17:58.613Z,94245.44
2022-11-23T10:20:51.349Z,94238.31
2022-11-23T10:23:36.112Z,94241.34
2022-11-23T10:26:03.236Z,94238.22
2022-11-23T10:28:32.268Z,94229.50
2022-11-23T10:31:20.256Z,94238.63
2022-11-23T10:34:13.519Z,94235.34
2022-11-23T10:36:41.364Z,94228.34
2022-11-23T10:39:21.351Z,94225.88
2022-11-23T10:41:49.709Z,94225.06
2022-11-23T10:44:30.411Z,94220.78
2022-11-23T10:46:58.987Z,94218.88
2022-11-23T10:49:27.433Z,94211.53
2022-11-23T10:52:17.205Z,94210.41
2022-11-23T10:54:47.318Z,94208.16
2022-11-23T10:57:33.552Z,94207.03
2022-11-23T11:00:02.613Z,94212.78
2022-11-23T11:02:48.720Z,94210.19
2022-11-23T11:06:11.010Z,94208.41
2022-11-23T11:08:34.746Z,94199.03
2022-11-23T11:11:11.768Z,94199.69
2022-11-23T11:13:44.560Z,94195.75
2022-11-23T11:16:34.658Z,94203.53
2022-11-23T11:19:26.729Z,94202.72
2022-11-23T11:21:54.195Z,94200.63
2022-11-23T11:24:38.391Z,94202.22
2022-11-23T11:27:13.288Z,94201.66
2022-11-23T11:29:48.934Z,94195.56
2022-11-23T11:32:37.549Z,94199.81
2022-11-23T11:35:25.319Z,94196.34
2022-11-23T11:37:57.077Z,94204.91
2022-11-23T11:40:48.938Z,94199.16
2022-11-23T11:43:39.591Z,94197.13
2022-11-23T11:46:29.047Z,94187.78
2022-11-23T11:49:18.207Z,94184.59
2022-11-23T11:51:59.308Z,94184.94
2022-11-23T11:54:44.364Z,94186.84
2022-11-23T11:57:17.467Z,94177.63
2022-11-23T11:59:48.010Z,94189.66
2022-11-23T12:02:50.750Z,94184.59
2022-11-23T12:05:25.192Z,94167.81
2022-11-23T12:07:54.812Z,94171.41
2022-11-23T12:10:27.984Z,94172.00
2022-11-23T12:12:55.582Z,94171.75
2022-11-23T12:15:48.805Z,94167.69
2022-11-23T12:18:42.402Z,94162.81
2022-11-23T12:21:39.781Z,94164.53
2022-11-23T12:24:20.718Z,94162.41
2022-11-23T12:26:56.799Z,94164.44
2022-11-23T12:29:39.259Z,94166.47
2022-11-23T12:32:15.272Z,94162.19
2022-11-23T12:35:04.145Z,94166.47
2022-11-23T12:37:49.519Z,94156.06
2022-11-23T12:40:25.448Z,94169.19
2022-11-23T12:43:01.634Z,94161.84
2022-11-23T12:45:53.805Z,94166.13
2022-11-23T12:48:35.925Z,94157.19
2022-11-23T12:52:04.550Z,94159.81
2022-11-23T12:54:47.842Z,94165.22
2022-11-23T12:57:24.769Z,94155.53
2022-11-23T13:00:00.644Z,94155.53
2022-11-23T13:02:58.070Z,94151.25
2022-11-23T13:05:55.122Z,94155.06
2022-11-23T13:09:03.921Z,94149.97
2022-11-23T13:11:53.660Z,94146.16
2022-11-23T13:14:33.236Z,94141.84
2022-11-23T13:17:41.553Z,94147.81
2022-11-23T13:20:28.919Z,94156.28
2022-11-23T13:22:58.312Z,94153.81
2022-11-23T13:25:28.634Z,94153.72
2022-11-23T13:27:59.075Z,94156.63
2022-11-23T13:31:07.273Z,94155.28
2022-11-23T13:33:30.402Z,94155.16
2022-11-23T13:36:03.811Z,94154.28
2022-11-23T13:38:40.137Z,94156.06
2022-11-23T13:41:33.373Z,94145.13
2022-11-23T13:44:19.001Z,94145.81
2022-11-23T13:47:07.690Z,94154.25
2022-11-23T13:49:43.586Z,94149.97
2022-11-23T13:52:22.843Z,94158.75
2022-11-23T13:55:13.052Z,94155.59
2022-11-23T13:57:46.991Z,94154.03
2022-11-23T14:00:44.149Z,94156.28
2022-11-23T14:03:42.334Z,94158.06
2022-11-23T14:06:34.623Z,94151.75
2022-11-23T14:09:19.321Z,94150.84
2022-11-23T14:12:05.252Z,94153.44
2022-11-23T14:14:49.433Z,94146.78
2022-11-23T14:17:48.547Z,94146.31
2022-11-23T14:20:52.677Z,94137.75
2022-11-23T14:23:43.326Z,94149.25
2022-11-23T14:26:13.010Z,94145.28
2022-11-23T14:29:01.359Z,94130.88
2022-11-23T14:31:37.015Z,94135.38
2022-11-23T14:34:32.547Z,94133.31
2022-11-23T14:37:13.688Z,94137.03
2022-11-23T14:40:08.730Z,94134.09
2022-11-23T14:42:43.033Z,94130.47
2022-11-23T14:45:15.148Z,94132.28
2022-11-23T14:47:42.437Z,94133.72
2022-11-23T14:50:29.146Z,94138.53
2022-11-23T14:52:59.029Z,94136.03
2022-11-23T14:55:28.849Z,94149.13
2022-11-23T14:58:03.625Z,94158.53
2022-11-23T15:00:41.022Z,94159.53
2022-11-23T15:06:17.286Z,94159.13
2022-11-23T15:08:54.203Z,94152.34
2022-11-23T15:11:25.557Z,94152.56
2022-11-23T15:13:54.679Z,94153.88
2022-11-23T15:16:21.996Z,94157.56
2022-11-23T15:18:49.439Z,94159.22
2022-11-23T15:21:28.049Z,94167.34
2022-11-23T15:23:57.214Z,94168.31
2022-11-23T15:26:47.477Z,94173.47
2022-11-23T15:29:29.393Z,94172.72
2022-11-23T15:32:22.366Z,94169.72
2022-11-23T15:34:43.924Z,94173.25
2022-11-23T15:37:11.158Z,94168.72
2022-11-23T15:39:38.761Z,94171.09
2022-11-23T15:42:06.772Z,94169.25
2022-11-23T15:44:38.402Z,94171.66
2022-11-23T15:47:07.264Z,94170.59
2022-11-23T15:49:38.710Z,94171.41
2022-11-23T15:52:06.459Z,94185.38
2022-11-23T15:54:38.584Z,94185.41
2022-11-23T15:57:15.409Z,94181.59
2022-11-23T16:00:00.614Z,94180.03
2022-11-23T16:02:30.450Z,94178.31
2022-11-23T16:05:13.746Z,94170.56
2022-11-23T16:07:56.554Z,94177.56
2022-11-23T16:10:34.066Z,94180.72
2022-11-23T16:13:03.622Z,94170.91
2022-11-23T16:15:40.317Z,94169.81
2022-11-23T16:18:13.099Z,94169.66
2022-11-23T16:20:47.941Z,94174.06
2022-11-23T16:23:20.692Z,94177.09
2022-11-23T16:25:56.884Z,94173.44
2022-11-23T16:28:33.030Z,94171.38
2022-11-23T16:31:00.894Z,94172.81
2022-11-23T16:33:28.715Z,94166.16
2022-11-23T16:35:56.241Z,94167.91
2022-11-23T16:38:24.158Z,94177.09
2022-11-23T16:40:51.214Z,94187.38
2022-11-23T16:43:18.732Z,94191.94
2022-11-23T16:45:49.077Z,94193.72
2022-11-23T16:48:24.709Z,94183.56
2022-11-23T16:50:53.337Z,94180.41
2022-11-23T16:53:20.996Z,94182.91
2022-11-23T16:55:55.778Z,94184.66
2022-11-23T16:58:23.960Z,94182.09
2022-11-23T17:00:51.017Z,94178.78
2022-11-23T17:03:21.211Z,94175.44
2022-11-23T17:05:48.594Z,94182.88
2022-11-23T17:08:23.133Z,94184.59
2022-11-23T17:10:51.434Z,94184.75
2022-11-23T17:13:29.380Z,94184.41
2022-11-23T17:15:56.637Z,94183.44
2022-11-23T17:18:23.703Z,94179.44
2022-11-23T17:20:50.811Z,94180.22
2022-11-23T17:23:18.086Z,94176.59
2022-11-23T17:25:45.154Z,94172.59
2022-11-23T17:28:17.852Z,94176.22
2022-11-23T17:30:44.961Z,94182.22
2022-11-23T17:33:12.125Z,94184.75
2022-11-23T17:35:40.048Z,94177.59
2022-11-23T17:38:14.123Z,94185.00
2022-11-23T17:40:41.222Z,94183.75
2022-11-23T17:43:13.697Z,94181.16
2022-11-23T17:45:41.427Z,94183.69
2022-11-23T17:48:12.095Z,94191.09
2022-11-23T17:50:39.481Z,94188.22
2022-11-23T17:53:06.939Z,94192.66
2022-11-23T17:55:34.143Z,94195.16
2022-11-23T17:58:01.244Z,94196.06
2022-11-23T18:00:29.662Z,94194.00
2022-11-23T18:02:56.748Z,94198.38
2022-11-23T18:05:23.870Z,94201.69
2022-11-23T18:07:51.117Z,94205.28
2022-11-23T18:13:11.366Z,94209.81
2022-11-23T18:15:38.535Z,94209.94
2022-11-23T18:18:05.666Z,94212.13
2022-11-23T18:20:32.808Z,94211.44
2022-11-23T18:23:00.047Z,94209.66
2022-11-23T18:25:27.074Z,94212.47
2022-11-23T18:27:54.149Z,94214.19
2022-11-23T18:30:21.420Z,94219.38
2022-11-23T18:32:48.557Z,94221.88
2022-11-23T18:35:15.776Z,94223.59
2022-11-23T18:37:42.795Z,94217.69
2022-11-23T18:40:10.296Z,94216.75
2022-11-23T18:42:37.348Z,94224.56
2022-11-23T18:45:05.039Z,94219.03
2022-11-23T18:47:32.099Z,94216.16
2022-11-23T18:50:03.435Z,94234.75
2022-11-23T18:52:33.424Z,94234.53
2022-11-23T18:55:00.545Z,94243.19
2022-11-23T18:57:27.610Z,94246.19
2022-11-23T18:59:58.845Z,94254.81
2022-11-23T19:02:26.672Z,94257.03
2022-11-23T19:04:53.929Z,94261.91
2022-11-23T19:07:26.583Z,94266.78
2022-11-23T19:09:54.356Z,94269.75
2022-11-23T19:12:21.427Z,94279.66
2022-11-23T19:14:48.606Z,94275.13
2022-11-23T19:17:16.586Z,94289.31
2022-11-23T19:19:43.668Z,94287.94
2022-11-23T19:22:10.749Z,94293.78
2022-11-23T19:24:37.885Z,94310.56
2022-11-23T19:27:04.943Z,94308.91
2022-11-23T19:29:32.044Z,94319.22
2022-11-23T19:31:59.173Z,94327.97
2022-11-23T19:34:26.232Z,94332.16
2022-11-23T19:36:53.396Z,94329.06
2022-11-23T19:39:20.388Z,94348.22
2022-11-23T19:41:47.454Z,94349.72
2022-11-23T19:44:14.781Z,94342.84
2022-11-23T19:46:41.857Z,94337.38
2022-11-23T19:49:09.061Z,94338.84
2022-11-23T19:51:36.211Z,94337.66
2022-11-23T19:54:03.512Z,94341.03
2022-11-23T19:56:30.608Z,94349.75
2022-11-23T19:58:59.765Z,94370.34
2022-11-23T20:01:29.601Z,94384.78
2022-11-23T20:04:08.324Z,94388.13
2022-11-23T20:06:38.255Z,94409.84
2022-11-23T20:09:25.694Z,94406.81
2022-11-23T20:11:52.936Z,94415.88
2022-11-23T20:14:20.011Z,94418.44
2022-11-23T20:16:47.243Z,94426.09
2022-11-23T20:19:14.424Z,94435.16
2022-11-23T20:21:41.572Z,94442.31
2022-11-23T20:24:12.259Z,94440.63
2022-11-23T20:26:40.594Z,94445.88
2022-11-23T20:29:08.309Z,94456.81
2022-11-23T20:31:36.647Z,94465.88
2022-11-23T20:34:07.082Z,94466.66
2022-11-23T20:36:36.781Z,94482.69
2022-11-23T20:39:06.455Z,94481.59
2022-11-23T20:41:35.795Z,94479.38
2022-11-23T20:44:11.487Z,94493.31
2022-11-23T20:47:00.712Z,94496.50
2022-11-23T20:49:25.854Z,94505.06
2022-11-23T20:51:52.952Z,94512.06
2022-11-23T20:54:20.002Z,94511.44
2022-11-23T20:56:47.084Z,94529.16
2022-11-23T20:59:14.574Z,94517.63
2022-11-23T21:01:41.705Z,94533.44
2022-11-23T21:04:09.009Z,94524.59
2022-11-23T21:06:39.361Z,94529.47
2022-11-23T21:09:08.426Z,94532.16
2022-11-23T21:11:36.005Z,94533.28
2022-11-23T21:14:05.334Z,94532.97
2022-11-23T21:16:44.281Z,94544.81
2022-11-23T21:19:12.850Z,94548.00
2022-11-23T21:21:40.242Z,94550.69
2022-11-23T21:24:07.608Z,94555.28
2022-11-23T21:26:35.025Z,94563.53
2022-11-23T21:29:02.110Z,94560.34
2022-11-23T21:31:29.839Z,94561.44
2022-11-23T21:33:57.080Z,94552.28
2022-11-23T21:36:24.094Z,94552.28
2022-11-23T21:38:51.302Z,94553.88
2022-11-23T21:41:18.395Z,94541.22
2022-11-23T21:43:45.454Z,94545.19
2022-11-23T21:46:12.947Z,94539.53
2022-11-23T21:48:40.239Z,94543.81
2022-11-23T21:51:10.908Z,94545.91
2022-11-23T21:53:38.367Z,94541.00
2022-11-23T21:56:11.789Z,94546.91
2022-11-23T21:58:39.425Z,94546.31
2022-11-23T22:01:06.612Z,94547.56
2022-11-23T22:03:57.603Z,94546.97
2022-11-23T22:06:24.756Z,94555.22
2022-11-23T22:08:53.841Z,94556.50
2022-11-23T22:11:23.446Z,94559.69
2022-11-23T22:13:55.349Z,94562.88
2022-11-23T22:16:27.949Z,94552.59
2022-11-23T22:18:56.298Z,94551.22
2022-11-23T22:21:28.928Z,94560.84
2022-11-23T22:23:56.113Z,94562.16
2022-11-23T22:26:23.291Z,94561.03
2022-11-23T22:28:51.399Z,94569.03
2022-11-23T22:31:19.825Z,94565.94
2022-11-23T22:33:47.361Z,94566.81
2022-11-23T22:36:15.882Z,94568.09
2022-11-23T22:38:43.716Z,94565.59
2022-11-23T22:41:13.957Z,94569.06
2022-11-23T22:43:42.031Z,94570.38
2022-11-23T22:46:12.266Z,94577.00
2022-11-23T22:48:41.087Z,94575.94
2022-11-23T22:51:10.585Z,94578.00
2022-11-23T22:53:43.907Z,94582.00
2022-11-23T22:56:16.832Z,94572.00
2022-11-23T22:58:45.298Z,94579.47
2022-11-23T23:01:14.840Z,94577.25
2022-11-23T23:03:42.445Z,94583.94
2022-11-23T23:06:21.064Z,94567.97
2022-11-23T23:08:53.014Z,94576.72
2022-11-23T23:11:20.226Z,94576.59
2022-11-23T23:13:47.541Z,94586.75
2022-11-23T23:16:14.742Z,94588.22
2022-11-23T23:18:42.878Z,94593.78
2022-11-23T23:21:15.417Z,94583.97
2022-11-23T23:23:44.858Z,94597.81
2022-11-23T23:26:12.975Z,94603.06
2022-11-23T23:28:40.061Z,94604.50
2022-11-23T23:31:09.387Z,94606.59
2022-11-23T23:33:37.164Z,94614.25
2022-11-23T23:36:08.518Z,94611.75
2022-11-23T23:38:36.153Z,94624.47
2022-11-23T23:41:04.055Z,94628.09
2022-11-23T23:43:31.215Z,94633.34
2022-11-23T23:45:59.887Z,94634.03
2022-11-23T23:48:35.315Z,94643.88
2022-11-23T23:51:13.272Z,94651.53
2022-11-23T23:53:40.634Z,94647.25
2022-11-23T23:56:13.827Z,94653.97
2022-11-23T23:58:41.113Z,94653.81
